This is the latest recevied weather packets stored in our database for station/object LRBC. If no packets are shown the sender has not sent any weather packets the latest 1 day(s).
| Time | Temp. | Humidity | Pressure | Rain* | Wind** | Luminosity | Snow |
|---|---|---|---|---|---|---|---|
| 1778096051 | 17.22° C | 52% | 1014 hPa | - | - | - | - |
| 1778094228 | 17.78° C | 52% | 1014 hPa | - | - | - | - |
| 1778093330 | 18.89° C | 49% | 1013 hPa | - | - | - | - |
| 1778091528 | 18.89° C | 49% | 1013 hPa | - | - | - | - |
| 1778087928 | 21.11° C | 43% | 1013 hPa | - | - | - | - |
| 1778084328 | 22.78° C | 41% | 1012 hPa | - | - | - | - |
| 1778082528 | 23.89° C | 36% | 1012 hPa | - | - | - | - |
| 1778078928 | 23.89° C | 34% | 1013 hPa | - | - | - | - |
| 1778064528 | 23.89° C | 34% | 1014 hPa | - | - | - | - |
| 1778063628 | 23.89° C | 34% | 1014 hPa | - | - | - | - |
| 1778062728 | 22.78° C | 38% | 1014 hPa | - | - | - | - |
| 1778061828 | 22.78° C | 38% | 1014 hPa | - | - | - | - |
| 1778060928 | 22.22° C | 41% | 1014 hPa | - | - | - | - |
| 1778057328 | 21.11° C | 46% | 1014 hPa | - | - | - | - |
| 1778055524 | 20° C | 49% | 1014 hPa | - | - | - | - |
| 1778054628 | 20° C | 49% | 1014 hPa | - | - | - | - |
| 1778053728 | 17.78° C | 56% | 1014 hPa | - | - | - | - |
| 1778052828 | 17.78° C | 56% | 1014 hPa | - | - | - | - |
| 1778051927 | 17.22° C | 59% | 1014 hPa | - | - | - | - |
| 1778051027 | 17.22° C | 59% | 1014 hPa | - | - | - | - |
| 1778049227 | 15° C | 63% | 1014 hPa | - | - | - | - |
| 1778048328 | 13.89° C | 63% | 1014 hPa | - | - | - | - |
| 1778047429 | 13.89° C | 63% | 1014 hPa | - | - | - | - |
| 1778046529 | 12.78° C | 67% | 1014 hPa | - | - | - | - |
| 1778045636 | 12.78° C | 67% | 1014 hPa | - | - | - | - |
* Rain since midnight (hover to see other rain measurements)
** Current wind speed in m/s (hover to see current wind gust speed)